createdAt,value
2018-11-06T00:01:28.254Z,56.17
2018-11-06T00:04:02.825Z,56.03
2018-11-06T00:06:32.007Z,58.10
2018-11-06T00:09:00.675Z,58.03
2018-11-06T00:11:29.273Z,55.73
2018-11-06T00:13:57.882Z,56.83
2018-11-06T00:16:26.520Z,57.10
2018-11-06T00:19:00.343Z,56.47
2018-11-06T00:21:29.000Z,61.90
2018-11-06T00:23:57.636Z,60.07
2018-11-06T00:26:26.281Z,57.30
2018-11-06T00:28:54.963Z,59.60
2018-11-06T00:31:23.563Z,59.77
2018-11-06T00:33:52.197Z,61.60
2018-11-06T00:36:20.798Z,62.50
2018-11-06T00:38:49.445Z,64.30
2018-11-06T00:41:18.179Z,57.80
2018-11-06T00:43:46.905Z,57.43
2018-11-06T00:46:15.547Z,61.37
2018-11-06T00:48:44.289Z,57.60
2018-11-06T00:51:12.974Z,58.90
2018-11-06T00:53:41.689Z,59.13
2018-11-06T00:56:10.323Z,59.37
2018-11-06T00:58:39.378Z,60.30
2018-11-06T01:01:08.102Z,63.10
2018-11-06T01:04:09.868Z,59.67
2018-11-06T01:06:38.825Z,58.97
2018-11-06T01:09:10.349Z,60.60
2018-11-06T01:11:39.043Z,60.57
2018-11-06T01:14:07.964Z,59.80
2018-11-06T01:16:36.637Z,59.03
2018-11-06T01:19:05.484Z,60.13
2018-11-06T01:21:34.110Z,58.80
2018-11-06T01:24:02.790Z,58.93
2018-11-06T01:26:31.781Z,61.80
2018-11-06T01:29:00.405Z,62.43
2018-11-06T01:31:29.050Z,61.40
2018-11-06T01:33:57.678Z,59.90
2018-11-06T01:36:26.245Z,58.27
2018-11-06T01:38:54.954Z,56.70
2018-11-06T01:41:23.698Z,59.13
2018-11-06T01:43:52.300Z,57.70
2018-11-06T01:46:20.914Z,59.40
2018-11-06T01:48:49.553Z,60.37
2018-11-06T01:51:18.256Z,58.43
2018-11-06T01:53:47.783Z,57.67
2018-11-06T01:56:16.418Z,59.43
2018-11-06T01:58:45.024Z,58.13
2018-11-06T02:01:13.688Z,57.77
2018-11-06T02:03:42.374Z,57.07
2018-11-06T02:06:10.993Z,58.77
2018-11-06T02:08:39.616Z,58.47
2018-11-06T02:11:08.230Z,59.77
2018-11-06T02:13:36.820Z,58.10
2018-11-06T02:16:05.778Z,60.47
2018-11-06T02:18:34.399Z,57.67
2018-11-06T02:21:03.133Z,58.90
2018-11-06T02:23:31.789Z,60.00
2018-11-06T02:26:00.379Z,57.47
2018-11-06T02:28:28.973Z,59.37
2018-11-06T02:30:57.581Z,59.67
2018-11-06T02:33:26.181Z,56.93
2018-11-06T02:35:54.830Z,58.90
2018-11-06T02:38:23.497Z,58.57
2018-11-06T02:40:52.105Z,57.30
2018-11-06T02:43:20.685Z,58.70
2018-11-06T02:45:49.313Z,64.70
2018-11-06T02:48:17.895Z,61.23
2018-11-06T02:50:46.528Z,63.00
2018-11-06T02:53:15.179Z,61.53
2018-11-06T02:55:43.915Z,60.23
2018-11-06T02:58:12.501Z,58.90
2018-11-06T03:00:41.207Z,60.63
2018-11-06T03:03:09.835Z,62.97
2018-11-06T03:05:38.451Z,60.23
2018-11-06T03:08:07.058Z,60.37
2018-11-06T03:10:35.656Z,60.27
2018-11-06T03:13:04.249Z,62.97
2018-11-06T03:15:32.903Z,58.33
2018-11-06T03:18:01.497Z,58.43
2018-11-06T03:20:30.154Z,58.93
2018-11-06T03:22:58.769Z,61.60
2018-11-06T03:25:27.399Z,60.33
2018-11-06T03:27:56.040Z,57.43
2018-11-06T03:30:24.651Z,59.67
2018-11-06T03:32:53.248Z,57.83
2018-11-06T03:35:21.902Z,56.60
2018-11-06T03:37:50.541Z,60.40
2018-11-06T03:40:19.107Z,61.20
2018-11-06T03:42:47.775Z,58.87
2018-11-06T03:45:16.378Z,59.87
2018-11-06T03:47:44.965Z,58.47
2018-11-06T03:50:13.900Z,61.73
2018-11-06T03:52:42.569Z,56.27
2018-11-06T03:55:11.322Z,61.87
2018-11-06T03:57:39.966Z,62.30
2018-11-06T04:00:11.013Z,64.20
2018-11-06T04:02:39.893Z,57.93
2018-11-06T04:05:08.797Z,59.33
2018-11-06T04:07:37.652Z,59.60
2018-11-06T04:10:07.363Z,59.33
2018-11-06T04:12:36.002Z,58.77
2018-11-06T04:15:04.660Z,59.60
2018-11-06T04:17:33.251Z,59.23
2018-11-06T04:20:01.862Z,57.10
2018-11-06T04:22:30.478Z,60.40
2018-11-06T04:24:59.129Z,59.23
2018-11-06T04:27:27.762Z,56.53
2018-11-06T04:29:56.378Z,56.10
2018-11-06T04:32:24.946Z,56.70
2018-11-06T04:34:53.620Z,56.73
2018-11-06T04:37:22.274Z,58.97
2018-11-06T04:39:50.949Z,55.63
2018-11-06T04:42:19.566Z,57.17
2018-11-06T04:44:48.214Z,55.73
2018-11-06T04:47:17.029Z,54.73
2018-11-06T04:49:45.676Z,57.40
2018-11-06T04:52:14.431Z,58.77
2018-11-06T04:54:43.035Z,60.63
2018-11-06T04:57:11.798Z,56.17
2018-11-06T04:59:40.410Z,57.63
2018-11-06T05:02:09.105Z,58.67
2018-11-06T05:04:37.731Z,63.70
2018-11-06T05:07:06.487Z,60.07
2018-11-06T05:09:35.130Z,61.90
2018-11-06T05:12:03.726Z,63.00
2018-11-06T05:14:33.358Z,61.07
2018-11-06T05:17:02.009Z,63.50
2018-11-06T05:19:30.675Z,62.67
2018-11-06T05:21:59.388Z,65.47
2018-11-06T05:24:28.020Z,68.63
2018-11-06T05:26:56.682Z,66.63
2018-11-06T05:29:25.308Z,65.77
2018-11-06T05:31:53.973Z,66.73
2018-11-06T05:34:22.573Z,70.37
2018-11-06T05:36:51.226Z,68.27
2018-11-06T05:39:19.858Z,66.07
2018-11-06T05:41:48.488Z,64.20
2018-11-06T05:44:17.212Z,65.30
2018-11-06T05:46:45.861Z,62.90
2018-11-06T05:49:14.550Z,67.90
2018-11-06T05:51:43.181Z,66.10
2018-11-06T05:54:11.861Z,70.87
2018-11-06T05:56:40.479Z,71.90
2018-11-06T05:59:09.312Z,73.27
2018-11-06T06:01:38.190Z,72.77
2018-11-06T06:04:07.221Z,71.50
2018-11-06T06:06:35.882Z,71.47
2018-11-06T06:09:06.396Z,75.10
2018-11-06T06:11:35.590Z,71.90
2018-11-06T06:14:04.335Z,73.30
2018-11-06T06:16:33.048Z,71.10
2018-11-06T06:19:01.662Z,73.43
2018-11-06T06:21:30.324Z,70.00
2018-11-06T06:23:58.983Z,78.20
2018-11-06T06:26:27.591Z,71.50
2018-11-06T06:28:56.277Z,72.60
2018-11-06T06:31:24.864Z,71.77
2018-11-06T06:33:53.501Z,73.67
2018-11-06T06:36:22.266Z,73.97
2018-11-06T06:38:50.968Z,72.77
2018-11-06T06:41:19.558Z,73.57
2018-11-06T06:43:48.269Z,75.10
2018-11-06T06:46:16.984Z,72.17
2018-11-06T06:48:45.655Z,74.90
2018-11-06T06:51:14.649Z,71.63
2018-11-06T06:53:43.305Z,68.77
2018-11-06T06:56:11.997Z,68.33
2018-11-06T06:58:40.684Z,66.10
2018-11-06T07:01:09.425Z,71.17
2018-11-06T07:03:38.091Z,64.57
2018-11-06T07:06:06.822Z,68.80
2018-11-06T07:08:35.472Z,62.70
2018-11-06T07:11:04.282Z,61.60
2018-11-06T07:13:32.984Z,62.57
2018-11-06T07:16:01.669Z,62.03
2018-11-06T07:18:30.467Z,61.43
2018-11-06T07:20:59.238Z,61.60
2018-11-06T07:23:27.991Z,58.63
2018-11-06T07:25:57.086Z,58.93
2018-11-06T07:28:25.769Z,56.33
2018-11-06T07:30:54.485Z,57.20
2018-11-06T07:33:23.153Z,59.83
2018-11-06T07:35:52.182Z,59.30
2018-11-06T07:38:20.947Z,58.17
2018-11-06T07:40:49.589Z,55.60
2018-11-06T07:43:18.835Z,57.50
2018-11-06T07:45:47.536Z,57.33
2018-11-06T07:48:16.218Z,55.73
2018-11-06T07:50:45.036Z,55.50
2018-11-06T07:53:13.698Z,54.43
2018-11-06T07:55:42.461Z,55.87
2018-11-06T07:58:11.591Z,55.47
2018-11-06T08:00:40.361Z,55.53
2018-11-06T08:03:09.143Z,54.57
2018-11-06T08:05:38.027Z,49.83
2018-11-06T08:08:06.827Z,52.97
2018-11-06T08:10:35.481Z,54.87
2018-11-06T08:13:04.178Z,55.17
2018-11-06T08:15:32.962Z,55.10
2018-11-06T08:18:01.648Z,56.00
2018-11-06T08:20:30.392Z,55.70
2018-11-06T08:22:59.045Z,56.07
2018-11-06T08:25:27.686Z,53.40
2018-11-06T08:27:56.627Z,53.00
2018-11-06T08:30:25.244Z,53.20
2018-11-06T08:32:55.294Z,54.83
2018-11-06T08:35:24.038Z,53.27
2018-11-06T08:37:53.172Z,52.73
2018-11-06T08:40:21.895Z,53.47
2018-11-06T08:42:50.602Z,52.40
2018-11-06T08:45:19.292Z,50.33
2018-11-06T08:47:48.048Z,50.33
2018-11-06T08:50:18.114Z,51.97
2018-11-06T08:52:46.762Z,49.67
2018-11-06T08:55:16.435Z,54.70
2018-11-06T08:57:45.490Z,50.60
2018-11-06T09:00:16.412Z,55.50
2018-11-06T09:02:46.375Z,53.30
2018-11-06T09:05:15.898Z,55.40
2018-11-06T09:07:44.831Z,55.13
2018-11-06T09:10:14.310Z,51.97
2018-11-06T09:12:43.034Z,55.07
2018-11-06T09:15:13.405Z,53.77
2018-11-06T09:17:42.136Z,55.00
2018-11-06T09:20:12.532Z,54.30
2018-11-06T09:22:41.415Z,50.77
2018-11-06T09:25:11.745Z,54.37
2018-11-06T09:27:40.916Z,52.33
2018-11-06T09:30:12.075Z,52.97
2018-11-06T09:32:40.815Z,53.90
2018-11-06T09:35:10.399Z,55.57
2018-11-06T09:37:39.374Z,52.90
2018-11-06T09:40:09.682Z,52.80
2018-11-06T09:42:38.404Z,55.80
2018-11-06T09:45:07.684Z,55.50
2018-11-06T09:47:36.471Z,54.33
2018-11-06T09:50:06.554Z,54.40
2018-11-06T09:52:35.174Z,54.27
2018-11-06T09:55:03.782Z,54.03
2018-11-06T09:57:32.510Z,51.83
2018-11-06T10:00:01.290Z,52.73
2018-11-06T10:02:30.150Z,51.43
2018-11-06T10:04:58.850Z,52.07
2018-11-06T10:07:27.785Z,51.70
2018-11-06T10:09:56.318Z,51.07
2018-11-06T10:12:24.993Z,51.80
2018-11-06T10:14:53.618Z,51.83
2018-11-06T10:17:22.247Z,49.83
2018-11-06T10:19:50.886Z,49.87
2018-11-06T10:22:19.577Z,51.53
2018-11-06T10:24:48.188Z,49.07
2018-11-06T10:27:16.815Z,50.03
2018-11-06T10:29:45.502Z,51.03
2018-11-06T10:32:14.426Z,51.23
2018-11-06T10:34:43.054Z,51.50
2018-11-06T10:37:11.692Z,48.20
2018-11-06T10:39:40.352Z,49.77
2018-11-06T10:42:09.451Z,48.90
2018-11-06T10:44:38.095Z,49.07
2018-11-06T10:47:06.677Z,50.90
2018-11-06T10:49:35.290Z,49.10
2018-11-06T10:52:03.971Z,51.23
2018-11-06T10:54:32.698Z,50.93
2018-11-06T10:57:01.345Z,49.70
2018-11-06T10:59:29.997Z,47.10
2018-11-06T11:02:03.875Z,47.80
2018-11-06T11:04:32.788Z,49.30
2018-11-06T11:07:01.442Z,47.17
2018-11-06T11:09:30.064Z,45.83
2018-11-06T11:11:58.753Z,47.30
2018-11-06T11:14:27.375Z,47.33
2018-11-06T11:16:55.973Z,46.23
2018-11-06T11:19:24.642Z,44.63
2018-11-06T11:21:53.221Z,48.37
2018-11-06T11:24:21.897Z,47.10
2018-11-06T11:26:50.929Z,45.27
2018-11-06T11:29:19.557Z,49.70
2018-11-06T11:31:48.154Z,48.67
2018-11-06T11:34:17.162Z,46.80
2018-11-06T11:36:45.782Z,45.07
2018-11-06T11:39:14.415Z,44.03
2018-11-06T11:41:43.099Z,47.03
2018-11-06T11:44:11.953Z,47.67
2018-11-06T11:46:40.710Z,47.70
2018-11-06T11:49:09.940Z,45.43
2018-11-06T11:51:38.735Z,45.17
2018-11-06T11:54:07.438Z,46.43
2018-11-06T11:56:36.188Z,46.37
2018-11-06T11:59:04.878Z,46.60
2018-11-06T12:01:33.593Z,47.90
2018-11-06T12:04:02.231Z,46.47
2018-11-06T12:06:30.946Z,44.97
2018-11-06T12:08:59.642Z,46.00
2018-11-06T12:11:28.274Z,46.40
2018-11-06T12:13:57.011Z,46.83
2018-11-06T12:16:25.681Z,43.70
2018-11-06T12:18:54.322Z,43.80
2018-11-06T12:21:22.982Z,45.97
2018-11-06T12:23:51.763Z,43.60
2018-11-06T12:26:20.409Z,44.60
2018-11-06T12:28:49.017Z,44.67
2018-11-06T12:31:17.742Z,43.40
2018-11-06T12:33:46.332Z,44.17
2018-11-06T12:36:15.039Z,43.80
2018-11-06T12:38:43.922Z,42.80
2018-11-06T12:41:13.250Z,43.30
2018-11-06T12:43:41.983Z,44.03
2018-11-06T12:46:10.654Z,43.00
2018-11-06T12:48:39.995Z,42.10
2018-11-06T12:51:08.877Z,43.03
2018-11-06T12:53:37.486Z,42.63
2018-11-06T12:56:06.418Z,43.23
2018-11-06T12:58:35.237Z,43.00
2018-11-06T13:01:03.934Z,41.63
2018-11-06T13:03:32.676Z,40.80
2018-11-06T13:06:02.571Z,40.73
2018-11-06T13:08:31.403Z,40.90
2018-11-06T13:11:00.218Z,41.30
2018-11-06T13:13:29.229Z,42.10
2018-11-06T13:15:58.412Z,41.80
2018-11-06T13:18:27.150Z,39.60
2018-11-06T13:20:55.820Z,40.00
2018-11-06T13:23:24.464Z,40.40
2018-11-06T13:25:53.101Z,38.53
2018-11-06T13:28:21.830Z,40.33
2018-11-06T13:30:50.564Z,40.70
2018-11-06T13:33:19.168Z,37.83
2018-11-06T13:35:47.836Z,37.50
2018-11-06T13:38:16.489Z,39.37
2018-11-06T13:40:45.117Z,37.27
2018-11-06T13:43:13.791Z,37.87
2018-11-06T13:45:42.554Z,36.80
2018-11-06T13:50:44.930Z,37.67
2018-11-06T13:53:13.547Z,37.60
2018-11-06T13:55:42.159Z,37.83
2018-11-06T13:58:10.795Z,37.40
2018-11-06T14:00:39.473Z,35.97
2018-11-06T14:03:08.368Z,39.60
2018-11-06T14:05:37.195Z,36.70
2018-11-06T14:08:06.262Z,35.27
2018-11-06T14:10:34.975Z,36.63
2018-11-06T14:13:03.622Z,37.20
2018-11-06T14:15:32.318Z,37.47
2018-11-06T14:18:01.335Z,36.87
2018-11-06T14:20:30.380Z,37.40
2018-11-06T14:22:59.019Z,36.77
2018-11-06T14:25:30.664Z,36.37
2018-11-06T14:27:59.351Z,36.20
2018-11-06T14:30:28.055Z,34.33
2018-11-06T14:32:56.809Z,35.53
2018-11-06T14:35:25.789Z,36.07
2018-11-06T14:37:54.535Z,36.80
2018-11-06T14:40:23.497Z,34.37
2018-11-06T14:42:52.239Z,35.30
2018-11-06T14:45:20.832Z,34.97
2018-11-06T14:47:49.441Z,33.03
2018-11-06T14:50:18.099Z,34.77
2018-11-06T14:52:46.684Z,35.90
2018-11-06T14:55:16.051Z,35.63
2018-11-06T14:57:44.690Z,34.10
2018-11-06T15:07:15.894Z,34.50
2018-11-06T15:09:44.633Z,35.00
2018-11-06T15:12:13.344Z,34.53
2018-11-06T15:14:42.313Z,33.00
2018-11-06T15:17:10.962Z,33.77
2018-11-06T15:19:39.648Z,33.33
2018-11-06T15:22:08.293Z,32.80
2018-11-06T15:24:36.915Z,33.03
2018-11-06T15:27:05.701Z,32.67
2018-11-06T15:29:34.370Z,33.30
2018-11-06T15:32:02.967Z,33.53
2018-11-06T15:34:31.603Z,32.30
2018-11-06T15:37:00.230Z,34.37
2018-11-06T15:39:28.887Z,33.73
2018-11-06T15:41:57.623Z,32.70
2018-11-06T15:44:26.129Z,33.30
2018-11-06T15:46:54.764Z,34.10
2018-11-06T15:49:23.371Z,34.40
2018-11-06T15:51:51.982Z,33.83
2018-11-06T15:54:20.574Z,33.57
2018-11-06T15:56:49.200Z,33.43
2018-11-06T15:59:17.815Z,34.80
2018-11-06T16:01:46.521Z,34.10
2018-11-06T16:04:15.170Z,33.10
2018-11-06T16:06:43.853Z,33.87
2018-11-06T16:09:12.468Z,34.90
2018-11-06T16:11:41.150Z,32.13
2018-11-06T16:14:09.788Z,31.90
2018-11-06T16:16:38.467Z,32.43
2018-11-06T16:19:07.612Z,31.80
2018-11-06T16:21:36.269Z,30.00
2018-11-06T16:24:04.984Z,33.37
2018-11-06T16:26:33.596Z,31.27
2018-11-06T16:29:02.225Z,33.03
2018-11-06T16:31:30.861Z,31.60
2018-11-06T16:33:59.493Z,34.47
2018-11-06T16:36:28.107Z,31.27
2018-11-06T16:38:56.817Z,32.87
2018-11-06T16:41:25.537Z,32.10
2018-11-06T16:43:54.154Z,32.87
2018-11-06T16:46:22.802Z,31.57
2018-11-06T16:48:51.429Z,31.63
2018-11-06T16:51:20.090Z,31.20
2018-11-06T16:53:48.746Z,31.50
2018-11-06T16:56:17.406Z,29.00
2018-11-06T16:58:46.028Z,33.63
2018-11-06T17:01:14.931Z,30.50
2018-11-06T17:03:43.358Z,31.17
2018-11-06T17:06:23.022Z,31.63
2018-11-06T17:08:51.693Z,31.83
2018-11-06T17:11:20.398Z,32.33
2018-11-06T17:13:49.042Z,33.13
2018-11-06T17:16:23.002Z,31.43
2018-11-06T17:18:52.359Z,34.20
2018-11-06T17:21:21.052Z,33.70
2018-11-06T17:23:49.727Z,34.27
2018-11-06T17:26:18.402Z,32.60
2018-11-06T17:28:47.130Z,33.70
2018-11-06T17:31:15.795Z,35.50
2018-11-06T17:33:44.622Z,34.83
2018-11-06T17:36:13.328Z,35.87
2018-11-06T17:38:42.038Z,36.10
2018-11-06T17:41:10.778Z,36.67
2018-11-06T17:43:39.557Z,37.00
2018-11-06T17:46:08.334Z,36.23
2018-11-06T17:48:37.128Z,37.43
2018-11-06T17:51:05.991Z,37.63
2018-11-06T17:53:34.722Z,39.67
2018-11-06T17:56:03.449Z,38.23
2018-11-06T17:58:32.228Z,38.10
2018-11-06T18:01:01.077Z,38.30
2018-11-06T18:03:29.946Z,36.80
2018-11-06T18:05:58.839Z,38.20
2018-11-06T18:08:27.654Z,39.97
2018-11-06T18:10:56.501Z,37.67
2018-11-06T18:13:25.838Z,38.13
2018-11-06T18:15:54.653Z,37.93
2018-11-06T18:18:23.386Z,39.90
2018-11-06T18:20:52.066Z,38.57
2018-11-06T18:23:20.750Z,37.40
2018-11-06T18:25:49.616Z,37.87
2018-11-06T18:28:18.157Z,40.43
2018-11-06T18:30:46.964Z,37.20
2018-11-06T18:33:15.680Z,37.70
2018-11-06T18:35:44.449Z,37.37
2018-11-06T18:38:13.250Z,36.50
2018-11-06T18:40:42.043Z,35.07
2018-11-06T18:43:10.740Z,34.30
2018-11-06T18:45:39.854Z,34.70
2018-11-06T18:48:08.697Z,33.73
2018-11-06T18:50:37.468Z,34.33
2018-11-06T18:53:06.595Z,33.00
2018-11-06T18:55:35.465Z,33.60
2018-11-06T18:58:04.269Z,32.60
2018-11-06T19:00:32.980Z,32.37
2018-11-06T19:03:01.715Z,33.60
2018-11-06T19:05:30.607Z,30.20
2018-11-06T19:08:00.582Z,32.30
2018-11-06T19:10:30.382Z,31.23
2018-11-06T19:12:59.696Z,31.33
2018-11-06T19:15:28.588Z,30.77
2018-11-06T19:17:57.808Z,33.20
2018-11-06T19:20:26.726Z,31.60
2018-11-06T19:22:55.394Z,30.37
2018-11-06T19:25:24.116Z,31.30
2018-11-06T19:27:52.822Z,31.03
2018-11-06T19:30:21.640Z,31.00
2018-11-06T19:32:50.757Z,31.60
2018-11-06T19:35:19.525Z,30.47
2018-11-06T19:40:22.376Z,29.03
2018-11-06T19:42:51.228Z,31.87
2018-11-06T19:45:20.181Z,32.30
2018-11-06T19:47:49.067Z,32.57
2018-11-06T19:50:19.233Z,31.60
2018-11-06T19:52:48.316Z,31.20
2018-11-06T19:55:18.017Z,32.57
2018-11-06T19:57:47.043Z,30.97
2018-11-06T20:00:22.026Z,33.27
2018-11-06T20:02:52.007Z,32.60
2018-11-06T20:05:21.097Z,30.20
2018-11-06T20:07:50.994Z,33.13
2018-11-06T20:10:21.389Z,32.17
2018-11-06T20:12:51.450Z,31.60
2018-11-06T20:15:20.323Z,33.20
2018-11-06T20:17:49.494Z,32.47
2018-11-06T20:20:20.149Z,33.40
2018-11-06T20:22:48.919Z,31.60
2018-11-06T20:25:24.109Z,34.10
2018-11-06T20:27:52.987Z,32.87
2018-11-06T20:30:23.360Z,32.27
2018-11-06T20:32:52.282Z,35.17
2018-11-06T20:35:21.029Z,33.57
2018-11-06T20:37:50.063Z,32.73
2018-11-06T20:40:22.397Z,34.80
2018-11-06T20:42:51.287Z,34.37
2018-11-06T20:45:20.516Z,33.40
2018-11-06T20:47:49.298Z,33.77
2018-11-06T20:50:21.063Z,35.30
2018-11-06T20:52:50.034Z,33.93
2018-11-06T20:55:19.248Z,33.10
2018-11-06T20:57:47.870Z,34.47
2018-11-06T21:00:21.523Z,33.57
2018-11-06T21:02:51.140Z,34.30
2018-11-06T21:05:19.929Z,32.13
2018-11-06T21:07:48.958Z,34.90
2018-11-06T21:10:19.160Z,34.93
2018-11-06T21:12:48.152Z,34.30
2018-11-06T21:15:17.017Z,34.40
2018-11-06T21:17:45.886Z,34.60
2018-11-06T21:20:15.313Z,35.17
2018-11-06T21:22:44.036Z,36.90
2018-11-06T21:25:13.162Z,33.43
2018-11-06T21:27:42.610Z,35.93
2018-11-06T21:30:15.976Z,35.73
2018-11-06T21:32:46.108Z,35.90
2018-11-06T21:35:14.963Z,34.77
2018-11-06T21:37:43.808Z,35.50
2018-11-06T21:40:15.408Z,36.43
2018-11-06T21:42:44.654Z,36.10
2018-11-06T21:45:14.029Z,34.33
2018-11-06T21:47:43.533Z,35.47
2018-11-06T21:50:13.158Z,35.83
2018-11-06T21:52:41.942Z,36.90
2018-11-06T21:55:11.862Z,37.10
2018-11-06T21:57:40.544Z,38.00
2018-11-06T22:00:13.285Z,37.23
2018-11-06T22:02:41.922Z,37.87
2018-11-06T22:05:13.522Z,37.50
2018-11-06T22:07:42.408Z,39.40
2018-11-06T22:10:12.459Z,37.43
2018-11-06T22:12:41.869Z,38.43
2018-11-06T22:15:11.610Z,36.67
2018-11-06T22:17:40.721Z,38.00
2018-11-06T22:20:11.062Z,37.47
2018-11-06T22:22:39.749Z,38.37
2018-11-06T22:25:08.574Z,39.43
2018-11-06T22:27:37.529Z,39.27
2018-11-06T22:30:08.214Z,39.50
2018-11-06T22:32:37.288Z,38.87
2018-11-06T22:35:07.556Z,38.50
2018-11-06T22:37:36.188Z,39.07
2018-11-06T22:40:04.998Z,37.80
2018-11-06T22:42:33.575Z,37.50
2018-11-06T22:45:02.226Z,39.33
2018-11-06T22:47:30.808Z,38.80
2018-11-06T22:49:59.461Z,38.40
2018-11-06T22:52:28.105Z,38.17
2018-11-06T22:54:56.756Z,39.40
2018-11-06T22:57:25.542Z,38.47
2018-11-06T22:59:54.204Z,39.80
2018-11-06T23:02:22.814Z,40.57
2018-11-06T23:04:57.216Z,40.63
2018-11-06T23:07:31.025Z,39.47
2018-11-06T23:09:59.655Z,42.53
2018-11-06T23:12:28.265Z,39.37
2018-11-06T23:14:56.907Z,40.33
2018-11-06T23:17:25.562Z,38.67
2018-11-06T23:19:54.170Z,39.30
2018-11-06T23:22:22.842Z,39.43
2018-11-06T23:24:51.534Z,39.77
2018-11-06T23:27:20.127Z,40.70
2018-11-06T23:29:48.769Z,40.43
2018-11-06T23:32:17.414Z,40.43
2018-11-06T23:34:46.025Z,38.87
2018-11-06T23:37:14.612Z,40.43
2018-11-06T23:39:43.234Z,40.80
2018-11-06T23:42:11.877Z,41.80
2018-11-06T23:44:40.496Z,38.60
2018-11-06T23:47:09.104Z,39.47
2018-11-06T23:49:37.752Z,39.30
2018-11-06T23:52:06.365Z,41.37
2018-11-06T23:54:34.986Z,41.63
2018-11-06T23:57:03.592Z,42.60
2018-11-06T23:59:32.245Z,41.00
